createdAt,value
2019-04-29T00:00:49.330Z,3.43
2019-04-29T00:03:17.851Z,3.00
2019-04-29T00:05:46.371Z,4.50
2019-04-29T00:08:14.878Z,2.53
2019-04-29T00:10:43.986Z,2.93
2019-04-29T00:13:12.887Z,3.40
2019-04-29T00:15:45.422Z,3.70
2019-04-29T00:18:18.177Z,2.57
2019-04-29T00:20:48.262Z,3.17
2019-04-29T00:23:16.728Z,3.20
2019-04-29T00:25:45.241Z,3.90
2019-04-29T00:28:14.026Z,4.07
2019-04-29T00:30:42.472Z,4.00
2019-04-29T00:33:10.922Z,3.13
2019-04-29T00:35:39.359Z,3.20
2019-04-29T00:38:21.555Z,3.40
2019-04-29T00:40:51.694Z,3.33
2019-04-29T00:43:21.780Z,4.93
2019-04-29T00:45:50.314Z,3.87
2019-04-29T00:48:18.881Z,2.87
2019-04-29T00:50:47.345Z,2.90
2019-04-29T00:53:15.776Z,3.23
2019-04-29T00:55:44.251Z,3.53
2019-04-29T00:58:12.698Z,2.90
2019-04-29T01:00:42.605Z,3.93
2019-04-29T01:03:11.040Z,3.43
2019-04-29T01:05:39.572Z,4.40
2019-04-29T01:08:08.098Z,5.10
2019-04-29T01:10:36.663Z,4.53
2019-04-29T01:13:05.118Z,3.17
2019-04-29T01:15:33.627Z,4.17
2019-04-29T01:18:02.075Z,4.40
2019-04-29T01:20:30.527Z,4.47
2019-04-29T01:22:58.980Z,4.50
2019-04-29T01:25:27.429Z,4.07
2019-04-29T01:27:57.508Z,4.00
2019-04-29T01:30:38.032Z,3.80
2019-04-29T01:33:06.482Z,2.77
2019-04-29T01:35:34.923Z,4.27
2019-04-29T01:38:03.365Z,3.60
2019-04-29T01:40:39.413Z,3.40
2019-04-29T01:43:08.122Z,3.90
2019-04-29T01:45:36.566Z,4.50
2019-04-29T01:48:05.027Z,3.90
2019-04-29T01:50:33.482Z,4.00
2019-04-29T01:53:01.934Z,4.70
2019-04-29T01:55:31.235Z,3.87
2019-04-29T01:57:59.683Z,3.70
2019-04-29T02:00:28.125Z,3.80
2019-04-29T02:02:56.570Z,4.87
2019-04-29T02:05:25.014Z,4.13
2019-04-29T02:07:53.459Z,4.40
2019-04-29T02:10:32.245Z,4.03
2019-04-29T02:13:00.706Z,5.10
2019-04-29T02:15:29.148Z,4.17
2019-04-29T02:17:57.603Z,4.33
2019-04-29T02:20:26.051Z,5.00
2019-04-29T02:23:01.850Z,4.10
2019-04-29T02:25:34.874Z,4.37
2019-04-29T02:28:03.314Z,3.17
2019-04-29T02:30:40.052Z,4.47
2019-04-29T02:33:08.499Z,4.30
2019-04-29T02:35:36.975Z,4.03
2019-04-29T02:38:07.064Z,4.40
2019-04-29T02:40:51.822Z,3.50
2019-04-29T02:43:21.904Z,3.50
2019-04-29T02:45:50.390Z,5.53
2019-04-29T02:48:18.856Z,4.40
2019-04-29T02:50:47.366Z,4.57
2019-04-29T02:53:15.813Z,4.07
2019-04-29T02:55:45.900Z,4.70
2019-04-29T02:58:18.993Z,5.67
2019-04-29T03:01:05.542Z,4.07
2019-04-29T03:03:44.666Z,3.77
2019-04-29T03:06:13.191Z,4.20
2019-04-29T03:08:41.904Z,3.90
2019-04-29T03:11:10.355Z,3.73
2019-04-29T03:13:38.977Z,5.00
2019-04-29T03:16:07.768Z,5.37
2019-04-29T03:18:37.912Z,3.83
2019-04-29T03:21:19.952Z,4.50
2019-04-29T03:23:48.391Z,4.53
2019-04-29T03:26:16.846Z,5.20
2019-04-29T03:28:45.286Z,3.80
2019-04-29T03:31:13.731Z,5.10
2019-04-29T03:33:42.257Z,4.00
2019-04-29T03:36:10.955Z,5.13
2019-04-29T03:38:39.400Z,4.67
2019-04-29T03:41:08.130Z,4.60
2019-04-29T03:43:36.637Z,4.90
2019-04-29T03:46:05.101Z,4.33
2019-04-29T03:48:33.543Z,4.90
2019-04-29T03:51:01.977Z,4.43
2019-04-29T03:53:30.521Z,4.33
2019-04-29T03:55:58.969Z,5.17
2019-04-29T03:58:27.420Z,4.33
2019-04-29T04:00:57.515Z,5.20
2019-04-29T04:03:30.342Z,4.30
2019-04-29T04:06:06.190Z,5.47
2019-04-29T04:08:36.450Z,5.33
2019-04-29T04:11:05.532Z,4.47
2019-04-29T04:13:33.989Z,4.90
2019-04-29T04:16:03.994Z,5.57
2019-04-29T04:18:34.090Z,4.60
2019-04-29T04:21:02.613Z,5.57
2019-04-29T04:23:31.132Z,4.70
2019-04-29T04:25:59.567Z,5.60
2019-04-29T04:28:28.032Z,4.67
2019-04-29T04:30:56.720Z,5.40
2019-04-29T04:33:25.445Z,5.80
2019-04-29T04:35:53.897Z,6.43
2019-04-29T04:38:22.419Z,5.10
2019-04-29T04:40:55.558Z,5.30
2019-04-29T04:43:24.022Z,6.03
2019-04-29T04:45:52.466Z,4.50
2019-04-29T04:48:20.905Z,4.13
2019-04-29T04:50:49.387Z,5.67
2019-04-29T04:53:17.847Z,5.80
2019-04-29T04:55:47.970Z,6.87
2019-04-29T04:58:16.410Z,7.07
2019-04-29T05:00:44.892Z,6.53
2019-04-29T05:03:13.483Z,7.20
2019-04-29T05:05:42.840Z,6.70
2019-04-29T05:08:11.392Z,6.53
2019-04-29T05:10:39.831Z,6.03
2019-04-29T05:13:08.303Z,8.27
2019-04-29T05:15:36.778Z,7.20
2019-04-29T05:18:05.235Z,7.10
2019-04-29T05:20:33.690Z,6.10
2019-04-29T05:23:02.154Z,8.67
2019-04-29T05:25:31.573Z,7.17
2019-04-29T05:28:00.613Z,7.10
2019-04-29T05:30:29.083Z,6.70
2019-04-29T05:32:57.624Z,7.47
2019-04-29T05:35:27.745Z,7.40
2019-04-29T05:37:57.848Z,7.23
2019-04-29T05:40:44.130Z,7.50
2019-04-29T05:43:27.151Z,8.70
2019-04-29T05:46:11.373Z,8.87
2019-04-29T05:48:39.874Z,9.60
2019-04-29T05:51:27.253Z,10.43
2019-04-29T05:53:57.731Z,10.50
2019-04-29T05:56:26.175Z,10.60
2019-04-29T05:58:54.619Z,10.43
2019-04-29T06:01:24.778Z,12.57
2019-04-29T06:03:53.223Z,10.33
2019-04-29T06:06:21.673Z,9.43
2019-04-29T06:08:50.123Z,12.83
2019-04-29T06:11:18.594Z,11.50
2019-04-29T06:13:47.039Z,13.90
2019-04-29T06:16:16.049Z,13.73
2019-04-29T06:18:45.697Z,12.07
2019-04-29T06:21:14.171Z,12.67
2019-04-29T06:23:42.607Z,12.50
2019-04-29T06:26:11.064Z,12.73
2019-04-29T06:28:39.510Z,11.33
2019-04-29T06:31:08.001Z,11.47
2019-04-29T06:33:36.442Z,12.60
2019-04-29T06:36:04.968Z,11.37
2019-04-29T06:38:33.406Z,11.43
2019-04-29T06:41:05.500Z,12.13
2019-04-29T06:43:32.045Z,12.53
2019-04-29T06:46:00.502Z,12.10
2019-04-29T06:48:28.962Z,11.10
2019-04-29T06:50:57.428Z,12.03
2019-04-29T06:53:26.077Z,12.17
2019-04-29T06:55:54.572Z,11.23
2019-04-29T06:58:23.052Z,11.30
2019-04-29T07:00:55.952Z,12.00
2019-04-29T07:03:25.436Z,11.63
2019-04-29T07:05:52.002Z,10.10
2019-04-29T07:08:20.545Z,11.97
2019-04-29T07:10:48.999Z,10.77
2019-04-29T07:13:17.991Z,12.73
2019-04-29T07:15:48.907Z,11.20
2019-04-29T07:18:17.463Z,12.20
2019-04-29T07:20:45.907Z,13.00
2019-04-29T07:23:14.373Z,12.00
2019-04-29T07:25:42.832Z,12.10
2019-04-29T07:28:13.866Z,12.80
2019-04-29T07:31:00.594Z,11.20
2019-04-29T07:33:11.630Z,11.85
2019-04-29T07:35:43.090Z,12.07
2019-04-29T07:38:10.308Z,10.60
2019-04-29T07:40:43.228Z,14.97
2019-04-29T07:43:09.608Z,11.03
2019-04-29T07:45:44.420Z,9.70
2019-04-29T07:48:09.943Z,8.87
2019-04-29T07:50:38.742Z,10.87
2019-04-29T07:53:07.163Z,9.37
2019-04-29T07:55:35.628Z,14.33
2019-04-29T07:58:04.074Z,10.20
2019-04-29T08:00:34.457Z,11.70
2019-04-29T08:03:05.383Z,10.23
2019-04-29T08:05:33.918Z,12.57
2019-04-29T08:08:02.672Z,11.87
2019-04-29T08:10:31.115Z,11.20
2019-04-29T08:12:59.806Z,10.60
2019-04-29T08:15:31.541Z,10.73
2019-04-29T08:18:06.399Z,9.93
2019-04-29T08:20:28.769Z,10.57
2019-04-29T08:22:58.448Z,10.43
2019-04-29T08:25:27.410Z,11.27
2019-04-29T08:27:55.875Z,10.70
2019-04-29T08:30:24.675Z,11.43
2019-04-29T08:32:53.120Z,10.47
2019-04-29T08:35:21.589Z,10.10
2019-04-29T08:37:50.026Z,9.53
2019-04-29T08:40:18.655Z,9.80
2019-04-29T08:42:48.758Z,9.80
2019-04-29T08:45:34.640Z,11.50
2019-04-29T08:48:02.155Z,9.90
2019-04-29T08:50:30.602Z,10.07
2019-04-29T08:52:59.062Z,10.83
2019-04-29T08:55:31.364Z,11.53
2019-04-29T08:57:57.764Z,12.43
2019-04-29T09:00:26.360Z,11.93
2019-04-29T09:02:54.801Z,12.43
2019-04-29T09:05:23.333Z,12.80
2019-04-29T09:07:52.509Z,14.40
2019-04-29T09:10:22.095Z,12.07
2019-04-29T09:12:50.548Z,12.87
2019-04-29T09:15:19.350Z,11.23
2019-04-29T09:17:47.860Z,10.60
2019-04-29T09:20:17.295Z,12.30
2019-04-29T09:22:56.494Z,11.30
2019-04-29T09:25:29.358Z,12.27
2019-04-29T09:28:05.227Z,13.50
2019-04-29T09:30:33.950Z,12.20
2019-04-29T09:33:02.390Z,11.70
2019-04-29T09:35:33.753Z,12.27
2019-04-29T09:38:01.287Z,12.20
2019-04-29T09:40:31.386Z,11.77
2019-04-29T09:43:15.166Z,9.97
2019-04-29T09:45:39.285Z,12.73
2019-04-29T09:48:07.727Z,10.60
2019-04-29T09:50:39.064Z,9.17
2019-04-29T09:53:06.577Z,8.70
2019-04-29T09:55:35.701Z,9.33
2019-04-29T09:58:05.195Z,8.33
2019-04-29T10:00:50.336Z,7.60
2019-04-29T10:03:20.479Z,8.37
2019-04-29T10:06:08.509Z,7.73
2019-04-29T10:08:36.959Z,8.40
2019-04-29T10:11:06.564Z,7.30
2019-04-29T10:13:35.086Z,7.23
2019-04-29T10:16:05.187Z,6.17
2019-04-29T10:18:35.276Z,7.57
2019-04-29T10:21:11.081Z,6.77
2019-04-29T10:23:39.801Z,7.47
2019-04-29T10:26:08.259Z,7.03
2019-04-29T10:28:38.363Z,7.20
2019-04-29T10:31:08.706Z,7.83
2019-04-29T10:33:37.252Z,6.20
2019-04-29T10:36:06.657Z,8.43
2019-04-29T10:38:35.094Z,9.20
2019-04-29T10:41:05.278Z,10.07
2019-04-29T10:43:38.243Z,8.83
2019-04-29T10:46:11.542Z,9.77
2019-04-29T10:48:44.135Z,10.40
2019-04-29T10:51:14.385Z,9.20
2019-04-29T10:53:46.547Z,8.80
2019-04-29T10:56:13.359Z,9.20
2019-04-29T10:58:41.809Z,9.83
2019-04-29T11:02:00.367Z,7.40
2019-04-29T11:04:17.880Z,8.97
2019-04-29T11:06:46.326Z,8.30
2019-04-29T11:09:16.493Z,10.50
2019-04-29T11:11:46.849Z,9.07
2019-04-29T11:14:15.419Z,9.40
2019-04-29T11:16:46.347Z,9.40
2019-04-29T11:19:14.230Z,8.37
2019-04-29T11:21:42.803Z,8.00
2019-04-29T11:24:32.224Z,7.13
2019-04-29T11:27:11.508Z,8.03
2019-04-29T11:29:35.755Z,7.67
2019-04-29T11:32:06.088Z,6.60
2019-04-29T11:34:36.195Z,7.40
2019-04-29T11:37:04.946Z,8.10
2019-04-29T11:39:33.406Z,6.23
2019-04-29T11:42:02.119Z,6.50
2019-04-29T11:44:31.928Z,6.73
2019-04-29T11:47:00.654Z,6.70
2019-04-29T11:49:30.757Z,7.10
2019-04-29T11:52:09.346Z,7.00
2019-04-29T11:54:29.482Z,7.60
2019-04-29T11:56:57.930Z,7.97
2019-04-29T11:59:31.079Z,6.50
2019-04-29T12:02:17.467Z,6.47
2019-04-29T12:04:50.516Z,6.80
2019-04-29T12:07:21.153Z,6.60
2019-04-29T12:09:49.748Z,6.77
2019-04-29T12:12:19.437Z,6.13
2019-04-29T12:14:49.532Z,6.70
2019-04-29T12:17:28.428Z,6.60
2019-04-29T12:19:58.523Z,7.53
2019-04-29T12:22:30.665Z,6.50
2019-04-29T12:24:57.139Z,6.70
2019-04-29T12:27:28.820Z,7.47
2019-04-29T12:29:59.469Z,6.87
2019-04-29T12:32:27.634Z,5.77
2019-04-29T12:35:00.454Z,7.57
2019-04-29T12:37:39.513Z,7.10
2019-04-29T12:40:26.338Z,7.47
2019-04-29T12:43:05.079Z,7.20
2019-04-29T12:45:37.894Z,6.43
2019-04-29T12:48:06.675Z,5.60
2019-04-29T12:50:35.479Z,7.40
2019-04-29T12:53:04.879Z,7.60
2019-04-29T12:55:44.918Z,9.23
2019-04-29T12:58:08.287Z,8.60
2019-04-29T13:00:47.889Z,8.70
2019-04-29T13:03:26.200Z,7.80
2019-04-29T13:05:58.295Z,7.40
2019-04-29T13:08:28.092Z,7.17
2019-04-29T13:10:58.451Z,7.87
2019-04-29T13:13:26.898Z,7.00
2019-04-29T13:16:13.106Z,7.00
2019-04-29T13:18:48.968Z,8.20
2019-04-29T13:21:16.293Z,8.40
2019-04-29T13:23:55.568Z,7.80
2019-04-29T13:26:27.383Z,7.87
2019-04-29T13:28:58.976Z,8.50
2019-04-29T13:31:15.268Z,8.90
2019-04-29T13:33:46.067Z,9.00
2019-04-29T13:36:14.486Z,11.27
2019-04-29T13:38:43.012Z,10.23
2019-04-29T13:41:13.950Z,9.33
2019-04-29T13:43:41.719Z,8.33
2019-04-29T13:46:20.474Z,9.50
2019-04-29T13:49:06.032Z,9.90
2019-04-29T13:51:35.890Z,8.93
2019-04-29T13:54:05.875Z,7.83
2019-04-29T13:56:39.203Z,7.93
2019-04-29T13:59:05.540Z,8.53
2019-04-29T14:01:33.523Z,7.40
2019-04-29T14:04:24.215Z,8.50
2019-04-29T14:06:57.153Z,7.77
2019-04-29T14:09:20.316Z,9.57
2019-04-29T14:12:01.006Z,10.50
2019-04-29T14:14:22.656Z,8.80
2019-04-29T14:16:49.176Z,10.30
2019-04-29T14:19:20.570Z,11.23
2019-04-29T14:21:47.796Z,11.30
2019-04-29T14:24:16.247Z,12.07
2019-04-29T14:26:47.737Z,10.00
2019-04-29T14:29:14.870Z,9.67
2019-04-29T14:31:43.388Z,11.10
2019-04-29T14:34:17.231Z,10.53
2019-04-29T14:36:43.659Z,10.93
2019-04-29T14:39:13.004Z,10.20
2019-04-29T14:41:43.934Z,10.80
2019-04-29T14:44:30.187Z,11.10
2019-04-29T14:47:00.674Z,12.30
2019-04-29T14:49:30.834Z,9.87
2019-04-29T14:51:59.278Z,10.90
2019-04-29T14:54:27.817Z,12.40
2019-04-29T14:56:56.267Z,11.53
2019-04-29T14:59:24.847Z,11.27
2019-04-29T15:02:00.887Z,12.00
2019-04-29T15:04:34.080Z,11.93
2019-04-29T15:07:02.641Z,12.17
2019-04-29T15:09:31.267Z,11.40
2019-04-29T15:12:01.390Z,11.47
2019-04-29T15:14:37.528Z,12.93
2019-04-29T15:17:07.624Z,14.30
2019-04-29T15:19:48.763Z,13.30
2019-04-29T15:22:16.057Z,15.43
2019-04-29T15:24:44.571Z,13.70
2019-04-29T15:27:13.035Z,16.50
2019-04-29T15:29:41.482Z,16.10
2019-04-29T15:32:11.185Z,19.23
2019-04-29T15:34:43.654Z,18.07
2019-04-29T15:37:09.943Z,18.90
2019-04-29T15:39:40.749Z,19.60
2019-04-29T15:42:09.183Z,20.23
2019-04-29T15:44:37.825Z,20.63
2019-04-29T15:47:06.286Z,20.40
2019-04-29T15:49:34.744Z,21.03
2019-04-29T15:52:03.263Z,23.00
2019-04-29T15:54:31.710Z,23.90
2019-04-29T15:57:03.584Z,25.27
2019-04-29T15:59:30.525Z,24.73
2019-04-29T16:02:04.103Z,23.60
2019-04-29T16:04:32.421Z,19.10
2019-04-29T16:07:02.622Z,21.73
2019-04-29T16:09:51.283Z,22.13
2019-04-29T16:12:15.454Z,24.00
2019-04-29T16:14:43.606Z,20.67
2019-04-29T16:17:13.767Z,21.90
2019-04-29T16:19:42.255Z,20.80
2019-04-29T16:22:12.869Z,21.33
2019-04-29T16:24:40.858Z,22.50
2019-04-29T16:27:10.538Z,21.23
2019-04-29T16:29:39.056Z,20.40
2019-04-29T16:32:09.212Z,19.07
2019-04-29T16:34:44.464Z,19.20
2019-04-29T16:37:08.002Z,20.00
2019-04-29T16:39:36.564Z,18.40
2019-04-29T16:42:15.485Z,21.00
2019-04-29T16:44:44.315Z,17.87
2019-04-29T16:47:13.796Z,22.47
2019-04-29T16:49:43.116Z,22.00
2019-04-29T16:52:11.679Z,25.97
2019-04-29T16:54:40.191Z,23.97
2019-04-29T16:57:08.939Z,24.93
2019-04-29T16:59:37.474Z,24.20
2019-04-29T17:02:05.943Z,26.20
2019-04-29T17:04:34.392Z,27.03
2019-04-29T17:07:12.307Z,28.00
2019-04-29T17:09:40.546Z,28.50
2019-04-29T17:12:09.076Z,26.17
2019-04-29T17:15:02.347Z,30.10
2019-04-29T17:17:09.400Z,32.33
2019-04-29T17:19:37.854Z,33.37
2019-04-29T17:22:24.965Z,33.87
2019-04-29T17:24:37.339Z,33.97
2019-04-29T17:27:23.690Z,34.47
2019-04-29T17:30:12.117Z,28.83
2019-04-29T17:32:46.862Z,26.80
2019-04-29T17:35:21.321Z,27.37
2019-04-29T17:37:43.998Z,27.70
2019-04-29T17:40:14.314Z,32.80
2019-04-29T17:42:44.494Z,30.47
2019-04-29T17:45:21.734Z,29.17
2019-04-29T17:47:53.311Z,27.10
2019-04-29T17:50:30.880Z,26.83
2019-04-29T17:52:59.092Z,25.30
2019-04-29T17:55:37.872Z,26.83
2019-04-29T17:58:05.918Z,23.77
2019-04-29T18:00:43.755Z,24.93
2019-04-29T18:03:21.776Z,25.40
2019-04-29T18:05:57.655Z,26.23
2019-04-29T18:08:30.250Z,25.53
2019-04-29T18:11:04.693Z,23.87
2019-04-29T18:13:30.520Z,27.90
2019-04-29T18:16:04.012Z,23.93
2019-04-29T18:18:49.183Z,23.50
2019-04-29T18:21:37.250Z,23.87
2019-04-29T18:24:16.133Z,24.97
2019-04-29T18:26:55.183Z,23.77
2019-04-29T18:29:23.652Z,24.10
2019-04-29T18:31:52.107Z,23.67
2019-04-29T18:34:20.545Z,25.30
2019-04-29T18:36:49.017Z,18.23
2019-04-29T18:39:20.153Z,18.50
2019-04-29T18:41:49.260Z,15.70
2019-04-29T18:44:19.567Z,15.13
2019-04-29T18:46:53.398Z,15.77
2019-04-29T18:49:19.117Z,14.30
2019-04-29T18:51:47.564Z,16.60
2019-04-29T18:54:16.579Z,18.87
2019-04-29T18:56:45.629Z,20.50
2019-04-29T18:59:18.250Z,18.20
2019-04-29T19:01:45.043Z,19.17
2019-04-29T19:04:20.747Z,21.47
2019-04-29T19:06:51.187Z,19.87
2019-04-29T19:09:21.165Z,23.00
2019-04-29T19:11:49.796Z,22.10
2019-04-29T19:14:20.568Z,26.03
2019-04-29T19:16:48.433Z,22.30
2019-04-29T19:19:18.812Z,22.07
2019-04-29T19:21:48.018Z,23.53
2019-04-29T19:24:16.461Z,23.83
2019-04-29T19:26:45.010Z,22.70
2019-04-29T19:29:13.444Z,25.33
2019-04-29T19:31:48.091Z,26.53
2019-04-29T19:34:16.380Z,28.20
2019-04-29T19:36:42.295Z,28.20
2019-04-29T19:39:10.888Z,27.20
2019-04-29T19:41:39.356Z,29.90
2019-04-29T19:44:08.016Z,26.57
2019-04-29T19:46:38.339Z,26.93
2019-04-29T19:49:09.871Z,31.43
2019-04-29T19:51:39.351Z,28.87
2019-04-29T19:54:07.030Z,30.27
2019-04-29T19:56:36.254Z,31.90
2019-04-29T19:59:12.335Z,38.43
2019-04-29T20:01:37.361Z,33.40
2019-04-29T20:04:15.921Z,36.37
2019-04-29T20:06:38.005Z,30.17
2019-04-29T20:09:16.506Z,30.67
2019-04-29T20:11:38.984Z,29.17
2019-04-29T20:14:18.196Z,32.10
2019-04-29T20:16:57.421Z,30.83
2019-04-29T20:19:42.116Z,29.43
2019-04-29T20:22:10.893Z,31.27
2019-04-29T20:24:39.621Z,31.80
2019-04-29T20:27:08.361Z,32.00
2019-04-29T20:29:38.734Z,30.10
2019-04-29T20:32:07.947Z,30.07
2019-04-29T20:34:36.734Z,28.80
2019-04-29T20:37:05.961Z,27.80
2019-04-29T20:39:35.716Z,30.60
2019-04-29T20:42:08.661Z,28.53
2019-04-29T20:44:36.652Z,29.30
2019-04-29T20:47:19.780Z,29.30
2019-04-29T20:49:38.409Z,29.10
2019-04-29T20:52:06.888Z,29.77
2019-04-29T20:54:36.255Z,28.97
2019-04-29T20:57:12.051Z,31.60
2019-04-29T20:59:35.965Z,30.97
2019-04-29T21:02:12.509Z,28.30
2019-04-29T21:04:45.771Z,27.93
2019-04-29T21:07:07.137Z,29.13
2019-04-29T21:09:35.762Z,27.53
2019-04-29T21:12:11.927Z,28.07
2019-04-29T21:14:46.461Z,28.23
2019-04-29T21:17:27.984Z,29.70
2019-04-29T21:19:45.159Z,26.97
2019-04-29T21:22:20.395Z,27.87
2019-04-29T21:24:45.303Z,28.40
2019-04-29T21:27:15.967Z,27.40
2019-04-29T21:29:45.733Z,30.10
2019-04-29T21:32:15.593Z,29.80
2019-04-29T21:35:01.053Z,28.30
2019-04-29T21:37:31.155Z,30.37
2019-04-29T21:40:01.237Z,31.10
2019-04-29T21:42:40.301Z,27.83
2019-04-29T21:45:10.815Z,26.97
2019-04-29T21:47:45.729Z,27.33
2019-04-29T21:50:09.738Z,29.27
2019-04-29T21:52:38.699Z,30.20
2019-04-29T21:55:07.620Z,31.87
2019-04-29T21:57:36.407Z,30.63
2019-04-29T22:00:09.695Z,31.10
2019-04-29T22:02:41.490Z,34.53
2019-04-29T22:05:09.625Z,33.33
2019-04-29T22:07:39.812Z,31.87
2019-04-29T22:10:10.489Z,37.70
2019-04-29T22:12:39.008Z,35.90
2019-04-29T22:15:07.706Z,31.27
2019-04-29T22:17:36.233Z,34.90
2019-04-29T22:20:07.920Z,33.60
2019-04-29T22:22:36.584Z,32.27
2019-04-29T22:25:09.762Z,34.30
2019-04-29T22:27:39.502Z,35.67
2019-04-29T22:30:15.461Z,36.23
2019-04-29T22:32:42.296Z,34.93
2019-04-29T22:35:11.125Z,33.87
2019-04-29T22:37:39.670Z,30.97
2019-04-29T22:40:08.969Z,35.47
2019-04-29T22:42:42.043Z,34.63
2019-04-29T22:45:10.709Z,34.10
2019-04-29T22:47:39.252Z,32.70
2019-04-29T22:50:07.851Z,34.87
2019-04-29T22:52:36.813Z,35.37
2019-04-29T22:55:06.847Z,34.90
2019-04-29T22:57:35.438Z,36.27
2019-04-29T23:00:06.415Z,39.83
2019-04-29T23:02:34.940Z,38.83
2019-04-29T23:05:04.447Z,37.10
2019-04-29T23:07:33.079Z,35.57
2019-04-29T23:10:01.586Z,36.20
2019-04-29T23:12:30.028Z,36.20
2019-04-29T23:14:58.751Z,36.90
2019-04-29T23:17:27.194Z,33.83
2019-04-29T23:19:57.326Z,34.27
2019-04-29T23:22:39.096Z,32.40
2019-04-29T23:25:21.818Z,36.20
2019-04-29T23:27:48.467Z,30.67
2019-04-29T23:30:20.160Z,31.87
2019-04-29T23:32:48.602Z,31.50
2019-04-29T23:35:17.057Z,30.27
2019-04-29T23:37:45.850Z,29.60
2019-04-29T23:40:14.685Z,31.20
2019-04-29T23:42:43.662Z,26.33
2019-04-29T23:45:14.662Z,30.00
2019-04-29T23:47:48.774Z,28.43
2019-04-29T23:50:18.645Z,27.40
2019-04-29T23:52:50.285Z,28.47
2019-04-29T23:55:15.999Z,28.90
2019-04-29T23:57:48.841Z,27.23
